createdAt,value
2019-02-11T00:02:04.636Z,4.12
2019-02-11T00:04:32.900Z,3.80
2019-02-11T00:07:01.137Z,5.07
2019-02-11T00:09:29.418Z,4.50
2019-02-11T00:11:57.665Z,10.08
2019-02-11T00:14:25.901Z,7.05
2019-02-11T00:16:54.163Z,5.97
2019-02-11T00:19:22.625Z,4.62
2019-02-11T00:21:50.874Z,8.53
2019-02-11T00:24:19.100Z,8.20
2019-02-11T00:26:47.378Z,5.08
2019-02-11T00:29:15.652Z,4.70
2019-02-11T00:31:43.937Z,7.12
2019-02-11T00:34:12.213Z,5.78
2019-02-11T00:36:40.863Z,9.58
2019-02-11T00:39:09.139Z,7.83
2019-02-11T00:41:37.375Z,7.28
2019-02-11T00:44:05.642Z,8.45
2019-02-11T00:46:33.938Z,7.12
2019-02-11T00:49:02.170Z,8.30
2019-02-11T00:51:30.410Z,7.23
2019-02-11T00:53:58.697Z,5.00
2019-02-11T00:56:26.991Z,7.95
2019-02-11T00:58:55.768Z,8.14
2019-02-11T01:01:24.201Z,6.42
2019-02-11T01:03:52.519Z,8.45
2019-02-11T01:06:20.763Z,10.27
2019-02-11T01:08:49.010Z,11.48
2019-02-11T01:11:17.248Z,7.40
2019-02-11T01:13:45.523Z,13.30
2019-02-11T01:16:13.795Z,7.45
2019-02-11T01:18:42.247Z,9.78
2019-02-11T01:21:10.555Z,11.50
2019-02-11T01:23:38.784Z,9.97
2019-02-11T01:26:07.062Z,10.00
2019-02-11T01:28:35.303Z,12.20
2019-02-11T01:31:03.574Z,11.93
2019-02-11T01:33:31.832Z,11.08
2019-02-11T01:36:00.104Z,9.53
2019-02-11T01:38:28.351Z,16.17
2019-02-11T01:40:56.611Z,6.50
2019-02-11T01:43:24.866Z,11.20
2019-02-11T01:45:53.142Z,9.25
2019-02-11T01:48:21.386Z,11.93
2019-02-11T01:50:50.127Z,10.07
2019-02-11T01:53:18.366Z,6.97
2019-02-11T01:55:46.651Z,11.25
2019-02-11T01:58:14.899Z,14.30
2019-02-11T02:00:43.146Z,11.03
2019-02-11T02:03:11.419Z,9.80
2019-02-11T02:05:39.650Z,17.15
2019-02-11T02:08:07.930Z,13.40
2019-02-11T02:10:36.182Z,12.03
2019-02-11T02:13:04.593Z,17.17
2019-02-11T02:15:33.005Z,18.07
2019-02-11T02:18:01.254Z,14.98
2019-02-11T02:20:29.608Z,11.63
2019-02-11T02:22:57.958Z,11.85
2019-02-11T02:25:26.267Z,10.65
2019-02-11T02:27:54.516Z,9.80
2019-02-11T02:30:22.784Z,9.23
2019-02-11T02:32:51.123Z,11.78
2019-02-11T02:35:19.376Z,10.03
2019-02-11T02:37:47.926Z,8.55
2019-02-11T02:40:16.203Z,7.80
2019-02-11T02:42:44.436Z,8.43
2019-02-11T02:45:12.713Z,7.20
2019-02-11T02:47:41.028Z,7.83
2019-02-11T02:50:10.098Z,8.80
2019-02-11T02:52:40.893Z,11.38
2019-02-11T02:55:09.199Z,9.17
2019-02-11T02:57:40.699Z,6.47
2019-02-11T03:00:11.051Z,6.17
2019-02-11T03:02:39.320Z,8.20
2019-02-11T03:05:09.096Z,11.67
2019-02-11T03:07:37.372Z,10.08
2019-02-11T03:10:10.514Z,7.42
2019-02-11T03:12:38.916Z,11.97
2019-02-11T03:15:09.727Z,11.30
2019-02-11T03:17:37.982Z,9.65
2019-02-11T03:20:10.620Z,10.10
2019-02-11T03:22:38.871Z,8.95
2019-02-11T03:25:08.373Z,12.33
2019-02-11T03:27:36.723Z,10.98
2019-02-11T03:30:07.757Z,10.25
2019-02-11T03:32:35.993Z,14.15
2019-02-11T03:35:05.180Z,14.30
2019-02-11T03:37:33.414Z,9.45
2019-02-11T03:40:01.673Z,9.20
2019-02-11T03:42:30.014Z,13.95
2019-02-11T03:44:58.312Z,12.03
2019-02-11T03:47:26.563Z,13.05
2019-02-11T03:49:54.804Z,17.73
2019-02-11T03:52:23.086Z,12.85
2019-02-11T03:54:51.332Z,17.92
2019-02-11T03:57:19.616Z,15.30
2019-02-11T03:59:47.867Z,14.05
2019-02-11T04:02:16.176Z,18.82
2019-02-11T04:04:44.452Z,13.10
2019-02-11T04:07:12.698Z,18.27
2019-02-11T04:09:40.944Z,14.40
2019-02-11T04:12:09.289Z,14.00
2019-02-11T04:14:37.623Z,11.22
2019-02-11T04:17:05.863Z,18.03
2019-02-11T04:19:34.237Z,15.13
2019-02-11T04:22:06.760Z,16.15
2019-02-11T04:24:35.002Z,16.85
2019-02-11T04:27:03.337Z,14.90
2019-02-11T04:29:31.615Z,19.82
2019-02-11T04:31:59.870Z,15.30
2019-02-11T04:34:28.155Z,11.08
2019-02-11T04:36:56.406Z,17.00
2019-02-11T04:39:24.661Z,20.05
2019-02-11T04:41:52.932Z,15.23
2019-02-11T04:44:21.195Z,12.35
2019-02-11T04:46:49.440Z,9.37
2019-02-11T04:49:17.785Z,14.30
2019-02-11T04:51:46.119Z,16.27
2019-02-11T04:54:14.343Z,11.78
2019-02-11T04:56:42.581Z,14.93
2019-02-11T04:59:10.874Z,12.57
2019-02-11T05:01:39.109Z,15.60
2019-02-11T05:04:07.379Z,11.10
2019-02-11T05:06:35.623Z,12.37
2019-02-11T05:09:05.330Z,9.80
2019-02-11T05:11:33.706Z,10.48
2019-02-11T05:14:02.088Z,12.60
2019-02-11T05:16:30.406Z,15.48
2019-02-11T05:18:58.701Z,10.20
2019-02-11T05:21:26.928Z,7.87
2019-02-11T05:23:55.407Z,6.33
2019-02-11T05:26:23.658Z,14.30
2019-02-11T05:28:51.923Z,9.55
2019-02-11T05:31:20.202Z,9.25
2019-02-11T05:33:48.459Z,9.43
2019-02-11T05:36:16.705Z,14.45
2019-02-11T05:38:45.318Z,8.80
2019-02-11T05:41:13.595Z,6.87
2019-02-11T05:43:41.883Z,9.98
2019-02-11T05:46:10.193Z,11.53
2019-02-11T05:48:38.439Z,8.48
2019-02-11T05:51:06.716Z,12.73
2019-02-11T05:53:34.959Z,7.17
2019-02-11T05:56:03.407Z,8.63
2019-02-11T05:58:31.670Z,13.00
2019-02-11T06:00:59.957Z,13.85
2019-02-11T06:03:28.313Z,10.20
2019-02-11T06:05:56.550Z,8.60
2019-02-11T06:08:24.915Z,11.45
2019-02-11T06:10:53.392Z,11.70
2019-02-11T06:13:21.639Z,11.45
2019-02-11T06:15:49.911Z,10.68
2019-02-11T06:18:18.186Z,11.65
2019-02-11T06:20:46.807Z,9.48
2019-02-11T06:23:15.076Z,10.18
2019-02-11T06:25:43.430Z,12.85
2019-02-11T06:28:11.676Z,10.20
2019-02-11T06:30:40.082Z,11.60
2019-02-11T06:33:08.335Z,12.10
2019-02-11T06:35:36.707Z,12.98
2019-02-11T06:38:04.951Z,16.70
2019-02-11T06:40:33.187Z,18.60
2019-02-11T06:43:01.538Z,16.20
2019-02-11T06:45:29.776Z,18.55
2019-02-11T06:47:58.121Z,17.52
2019-02-11T06:50:26.485Z,14.73
2019-02-11T06:52:54.671Z,20.92
2019-02-11T06:55:22.971Z,19.92
2019-02-11T06:57:51.225Z,17.32
2019-02-11T07:00:19.467Z,25.85
2019-02-11T07:02:47.978Z,24.43
2019-02-11T07:05:16.258Z,18.12
2019-02-11T07:07:44.503Z,20.85
2019-02-11T07:10:12.807Z,15.20
2019-02-11T07:12:41.244Z,25.90
2019-02-11T07:15:21.205Z,25.62
2019-02-11T07:20:11.310Z,22.77
2019-02-11T07:22:42.248Z,21.05
2019-02-11T07:25:10.550Z,25.63
2019-02-11T07:27:38.799Z,25.35
2019-02-11T07:30:11.992Z,31.97
2019-02-11T07:32:40.232Z,26.47
2019-02-11T07:35:08.475Z,23.37
2019-02-11T07:37:36.770Z,24.37
2019-02-11T07:40:08.323Z,28.73
2019-02-11T07:42:41.018Z,19.25
2019-02-11T07:45:12.246Z,21.25
2019-02-11T07:47:40.527Z,21.97
2019-02-11T07:50:08.820Z,22.00
2019-02-11T07:52:38.615Z,27.20
2019-02-11T07:55:06.863Z,22.42
2019-02-11T07:57:35.239Z,24.92
2019-02-11T08:00:03.648Z,21.75
2019-02-11T08:02:31.907Z,19.17
2019-02-11T08:05:00.281Z,15.70
2019-02-11T08:07:28.508Z,24.57
2019-02-11T08:09:56.820Z,17.23
2019-02-11T08:12:25.115Z,22.13
2019-02-11T08:14:53.411Z,18.37
2019-02-11T08:17:21.684Z,21.70
2019-02-11T08:19:49.960Z,26.90
2019-02-11T08:22:18.242Z,14.40
2019-02-11T08:24:46.578Z,25.47
2019-02-11T08:27:14.852Z,16.97
2019-02-11T08:29:43.159Z,19.52
2019-02-11T08:32:11.670Z,24.55
2019-02-11T08:34:39.919Z,21.48
2019-02-11T08:37:08.190Z,19.27
2019-02-11T08:39:36.479Z,23.22
2019-02-11T08:42:04.731Z,25.77
2019-02-11T08:44:33.694Z,20.23
2019-02-11T08:47:02.019Z,24.07
2019-02-11T08:49:30.303Z,23.18
2019-02-11T08:51:58.585Z,19.75
2019-02-11T08:54:26.847Z,21.23
2019-02-11T08:56:55.228Z,15.43
2019-02-11T08:59:23.503Z,18.35
2019-02-11T09:01:51.813Z,22.73
2019-02-11T09:04:20.088Z,17.07
2019-02-11T09:06:48.339Z,20.60
2019-02-11T09:09:16.593Z,22.52
2019-02-11T09:11:44.870Z,18.35
2019-02-11T09:14:13.146Z,21.75
2019-02-11T09:16:41.399Z,19.57
2019-02-11T09:19:09.817Z,21.97
2019-02-11T09:21:38.100Z,18.67
2019-02-11T09:24:06.356Z,25.50
2019-02-11T09:26:34.639Z,17.92
2019-02-11T09:29:03.262Z,23.40
2019-02-11T09:31:31.606Z,18.90
2019-02-11T09:34:00.159Z,17.80
2019-02-11T09:36:28.424Z,20.82
2019-02-11T09:38:56.705Z,19.87
2019-02-11T09:41:25.147Z,23.77
2019-02-11T09:43:53.801Z,19.75
2019-02-11T09:46:22.079Z,19.98
2019-02-11T09:48:50.945Z,15.60
2019-02-11T09:51:20.239Z,20.48
2019-02-11T09:53:48.487Z,18.02
2019-02-11T09:56:16.929Z,23.90
2019-02-11T09:58:45.212Z,27.50
2019-02-11T10:01:13.465Z,12.73
2019-02-11T10:03:41.742Z,22.50
2019-02-11T10:06:10.030Z,20.97
2019-02-11T10:08:38.372Z,18.80
2019-02-11T10:11:06.648Z,18.70
2019-02-11T10:13:34.923Z,18.35
2019-02-11T10:16:03.278Z,15.98
2019-02-11T10:18:31.518Z,17.98
2019-02-11T10:20:59.807Z,16.40
2019-02-11T10:23:28.060Z,17.25
2019-02-11T10:25:56.403Z,20.65
2019-02-11T10:28:24.796Z,18.42
2019-02-11T10:30:53.365Z,19.42
2019-02-11T10:33:21.635Z,18.60
2019-02-11T10:35:49.976Z,20.75
2019-02-11T10:38:18.261Z,23.85
2019-02-11T10:40:46.548Z,19.87
2019-02-11T10:43:14.926Z,25.52
2019-02-11T10:45:43.268Z,22.50
2019-02-11T10:48:11.638Z,27.22
2019-02-11T10:50:39.916Z,21.02
2019-02-11T10:53:08.158Z,19.02
2019-02-11T10:55:36.534Z,20.62
2019-02-11T10:58:04.823Z,15.57
2019-02-11T11:00:33.340Z,20.65
2019-02-11T11:03:01.719Z,21.55
2019-02-11T11:05:29.972Z,21.52
2019-02-11T11:07:58.225Z,14.80
2019-02-11T11:10:32.184Z,14.73
2019-02-11T11:13:00.453Z,18.80
2019-02-11T11:15:29.128Z,18.62
2019-02-11T11:17:57.439Z,17.90
2019-02-11T11:20:25.917Z,16.12
2019-02-11T11:22:54.404Z,18.17
2019-02-11T11:25:22.875Z,17.95
2019-02-11T11:27:51.347Z,20.62
2019-02-11T11:30:20.003Z,14.83
2019-02-11T11:32:48.297Z,18.70
2019-02-11T11:35:17.859Z,17.85
2019-02-11T11:37:46.120Z,17.83
2019-02-11T11:40:19.880Z,17.27
2019-02-11T11:42:48.123Z,19.97
2019-02-11T11:45:18.582Z,18.40
2019-02-11T11:47:46.935Z,16.15
2019-02-11T11:50:16.220Z,15.03
2019-02-11T11:52:44.535Z,17.77
2019-02-11T11:55:15.202Z,13.20
2019-02-11T11:57:43.482Z,15.15
2019-02-11T12:00:28.837Z,17.32
2019-02-11T12:03:02.786Z,14.95
2019-02-11T12:05:27.104Z,14.90
2019-02-11T12:07:55.367Z,22.53
2019-02-11T12:10:23.846Z,15.32
2019-02-11T12:12:52.259Z,15.43
2019-02-11T12:15:22.500Z,20.48
2019-02-11T12:17:51.085Z,15.40
2019-02-11T12:20:19.379Z,18.32
2019-02-11T12:22:47.665Z,15.65
2019-02-11T12:25:17.627Z,12.77
2019-02-11T12:27:45.892Z,19.95
2019-02-11T12:30:16.941Z,17.85
2019-02-11T12:32:45.194Z,13.75
2019-02-11T12:35:14.349Z,18.87
2019-02-11T12:37:42.675Z,13.38
2019-02-11T12:40:11.961Z,11.85
2019-02-11T12:42:40.207Z,19.32
2019-02-11T12:45:14.817Z,13.77
2019-02-11T12:50:13.186Z,11.93
2019-02-11T12:52:41.662Z,15.23
2019-02-11T12:55:17.796Z,10.53
2019-02-11T12:57:46.100Z,12.78
2019-02-11T13:00:23.603Z,11.60
2019-02-11T13:02:52.033Z,11.43
2019-02-11T13:05:23.205Z,10.20
2019-02-11T13:07:50.801Z,13.40
2019-02-11T13:10:22.122Z,14.23
2019-02-11T13:12:50.706Z,11.50
2019-02-11T13:15:59.139Z,15.53
2019-02-11T13:17:49.598Z,13.03
2019-02-11T13:20:18.922Z,19.00
2019-02-11T13:22:47.626Z,11.10
2019-02-11T13:25:16.790Z,15.33
2019-02-11T13:27:45.128Z,14.35
2019-02-11T13:30:19.178Z,14.90
2019-02-11T13:32:47.551Z,13.20
2019-02-11T13:35:15.904Z,16.03
2019-02-11T13:37:44.147Z,15.93
2019-02-11T13:40:12.647Z,8.33
2019-02-11T13:42:40.958Z,12.65
2019-02-11T13:45:48.701Z,10.58
2019-02-11T13:48:17.071Z,13.68
2019-02-11T13:50:45.482Z,13.08
2019-02-11T13:53:13.729Z,13.40
2019-02-11T13:55:42.199Z,10.88
2019-02-11T13:58:10.476Z,12.03
2019-02-11T14:00:38.856Z,11.70
2019-02-11T14:03:07.793Z,13.55
2019-02-11T14:05:36.130Z,13.03
2019-02-11T14:08:04.441Z,10.45
2019-02-11T14:10:32.829Z,12.37
2019-02-11T14:13:01.147Z,17.82
2019-02-11T14:15:29.473Z,14.28
2019-02-11T14:18:12.128Z,19.17
2019-02-11T14:20:33.557Z,12.50
2019-02-11T14:23:01.838Z,17.63
2019-02-11T14:25:42.367Z,24.12
2019-02-11T14:28:00.079Z,12.18
2019-02-11T14:30:28.372Z,17.27
2019-02-11T14:32:57.707Z,17.77
2019-02-11T14:35:25.988Z,23.10
2019-02-11T14:37:54.368Z,14.58
2019-02-11T14:40:22.806Z,15.23
2019-02-11T14:42:51.105Z,12.85
2019-02-11T14:45:20.395Z,13.18
2019-02-11T14:47:48.705Z,18.40
2019-02-11T14:50:16.916Z,11.20
2019-02-11T14:52:45.168Z,14.67
2019-02-11T14:55:13.478Z,11.60
2019-02-11T14:57:41.755Z,13.35
2019-02-11T15:00:14.690Z,15.28
2019-02-11T15:02:42.944Z,18.07
2019-02-11T15:05:11.229Z,14.28
2019-02-11T15:07:39.575Z,14.90
2019-02-11T15:10:10.038Z,16.57
2019-02-11T15:12:38.314Z,16.93
2019-02-11T15:15:08.603Z,14.80
2019-02-11T15:17:37.359Z,20.32
2019-02-11T15:20:08.504Z,14.95
2019-02-11T15:22:36.779Z,17.20
2019-02-11T15:25:08.235Z,17.50
2019-02-11T15:27:38.240Z,14.93
2019-02-11T15:30:09.476Z,12.25
2019-02-11T15:32:37.828Z,17.73
2019-02-11T15:35:07.817Z,18.32
2019-02-11T15:37:36.227Z,15.93
2019-02-11T15:40:07.445Z,14.37
2019-02-11T15:42:35.776Z,12.85
2019-02-11T15:45:09.867Z,15.78
2019-02-11T15:47:38.142Z,21.90
2019-02-11T15:50:09.489Z,14.65
2019-02-11T15:52:38.107Z,12.73
2019-02-11T15:55:14.782Z,13.00
2019-02-11T15:57:43.057Z,13.93
2019-02-11T16:00:14.438Z,14.50
2019-02-11T16:02:42.785Z,15.15
2019-02-11T16:05:16.122Z,17.92
2019-02-11T16:07:41.356Z,13.48
2019-02-11T16:10:18.502Z,13.58
2019-02-11T16:12:46.822Z,20.27
2019-02-11T16:15:15.112Z,8.43
2019-02-11T16:17:43.394Z,17.30
2019-02-11T16:20:14.644Z,15.65
2019-02-11T16:22:43.157Z,14.05
2019-02-11T16:25:13.139Z,14.47
2019-02-11T16:27:41.547Z,16.97
2019-02-11T16:30:12.537Z,16.35
2019-02-11T16:32:40.791Z,14.65
2019-02-11T16:35:10.855Z,18.48
2019-02-11T16:37:40.008Z,14.73
2019-02-11T16:40:11.225Z,15.80
2019-02-11T16:42:39.476Z,13.35
2019-02-11T16:45:09.962Z,20.15
2019-02-11T16:47:38.385Z,10.30
2019-02-11T16:50:09.729Z,18.67
2019-02-11T16:52:38.104Z,13.27
2019-02-11T16:55:08.897Z,14.58
2019-02-11T16:57:37.274Z,17.23
2019-02-11T17:00:09.289Z,18.73
2019-02-11T17:02:37.541Z,17.90
2019-02-11T17:05:08.884Z,14.60
2019-02-11T17:07:41.875Z,13.70
2019-02-11T17:10:09.862Z,17.45
2019-02-11T17:12:38.284Z,14.60
2019-02-11T17:15:09.872Z,14.70
2019-02-11T17:17:38.210Z,19.10
2019-02-11T17:20:12.378Z,22.42
2019-02-11T17:22:40.646Z,17.27
2019-02-11T17:25:10.258Z,25.15
2019-02-11T17:27:38.534Z,13.47
2019-02-11T17:30:12.753Z,18.67
2019-02-11T17:35:10.579Z,17.42
2019-02-11T17:37:39.033Z,14.80
2019-02-11T17:40:14.336Z,16.27
2019-02-11T17:42:42.627Z,14.63
2019-02-11T17:45:19.697Z,13.45
2019-02-11T17:47:48.001Z,15.10
2019-02-11T17:50:16.243Z,17.95
2019-02-11T17:52:44.503Z,26.25
2019-02-11T17:55:14.716Z,16.77
2019-02-11T17:57:42.981Z,17.00
2019-02-11T18:00:25.001Z,14.80
2019-02-11T18:02:53.324Z,10.30
2019-02-11T18:05:21.660Z,16.30
2019-02-11T18:07:49.939Z,18.25
2019-02-11T18:10:18.212Z,18.95
2019-02-11T18:12:46.468Z,16.77
2019-02-11T18:15:14.762Z,17.70
2019-02-11T18:17:43.015Z,16.77
2019-02-11T18:20:11.294Z,13.40
2019-02-11T18:22:39.558Z,16.20
2019-02-11T18:25:09.473Z,17.20
2019-02-11T18:27:37.982Z,20.60
2019-02-11T18:30:13.644Z,21.57
2019-02-11T18:32:41.955Z,16.60
2019-02-11T18:35:12.543Z,21.95
2019-02-11T18:37:40.844Z,19.50
2019-02-11T18:40:12.056Z,23.70
2019-02-11T18:42:40.595Z,14.28
2019-02-11T18:45:16.923Z,14.53
2019-02-11T18:47:45.218Z,20.30
2019-02-11T18:50:14.512Z,17.80
2019-02-11T18:52:42.909Z,23.30
2019-02-11T18:55:13.337Z,20.23
2019-02-11T18:57:41.854Z,17.67
2019-02-11T19:00:13.335Z,15.32
2019-02-11T19:02:41.851Z,22.02
2019-02-11T19:05:10.602Z,18.67
2019-02-11T19:07:38.908Z,19.23
2019-02-11T19:10:10.642Z,19.75
2019-02-11T19:12:38.908Z,21.73
2019-02-11T19:15:10.437Z,23.90
2019-02-11T19:17:38.685Z,25.17
2019-02-11T19:20:09.646Z,18.00
2019-02-11T19:22:38.139Z,20.92
2019-02-11T19:25:09.024Z,29.83
2019-02-11T19:27:37.310Z,19.67
2019-02-11T19:30:14.657Z,30.27
2019-02-11T19:32:43.083Z,25.55
2019-02-11T19:35:11.343Z,21.17
2019-02-11T19:37:39.589Z,20.60
2019-02-11T19:40:10.876Z,20.45
2019-02-11T19:42:39.247Z,17.90
2019-02-11T19:45:10.744Z,15.75
2019-02-11T19:47:39.249Z,24.47
2019-02-11T19:50:10.649Z,21.10
2019-02-11T19:52:38.949Z,20.68
2019-02-11T19:55:10.862Z,18.20
2019-02-11T19:57:39.190Z,16.03
2019-02-11T20:00:19.190Z,32.33
2019-02-11T20:02:48.000Z,23.00
2019-02-11T20:05:16.332Z,18.00
2019-02-11T20:07:44.830Z,20.25
2019-02-11T20:10:23.537Z,20.85
2019-02-11T20:12:51.934Z,25.15
2019-02-11T20:15:28.854Z,22.42
2019-02-11T20:17:57.118Z,16.87
2019-02-11T20:20:25.466Z,20.48
2019-02-11T20:22:53.729Z,19.05
2019-02-11T20:25:22.277Z,26.07
2019-02-11T20:27:50.619Z,27.10
2019-02-11T20:30:26.733Z,18.10
2019-02-11T20:32:54.994Z,21.33
2019-02-11T20:35:23.338Z,19.30
2019-02-11T20:37:51.578Z,19.73
2019-02-11T20:40:22.779Z,18.40
2019-02-11T20:42:51.090Z,23.38
2019-02-11T20:45:21.697Z,16.20
2019-02-11T20:47:49.974Z,23.07
2019-02-11T20:50:18.558Z,28.83
2019-02-11T20:52:46.928Z,30.40
2019-02-11T20:55:15.359Z,22.37
2019-02-11T20:57:44.586Z,22.98
2019-02-11T21:00:16.478Z,21.40
2019-02-11T21:02:44.792Z,23.42
2019-02-11T21:05:13.230Z,25.32
2019-02-11T21:07:41.572Z,27.45
2019-02-11T21:10:12.614Z,28.47
2019-02-11T21:12:41.052Z,18.73
2019-02-11T21:15:14.406Z,34.75
2019-02-11T21:17:42.780Z,28.23
2019-02-11T21:20:20.583Z,28.10
2019-02-11T21:22:49.060Z,25.17
2019-02-11T21:25:17.433Z,27.80
2019-02-11T21:27:45.812Z,29.27
2019-02-11T21:30:15.926Z,23.07
2019-02-11T21:32:44.260Z,27.77
2019-02-11T21:35:13.280Z,22.67
2019-02-11T21:37:41.722Z,29.45
2019-02-11T21:40:09.981Z,24.50
2019-02-11T21:42:38.360Z,26.37
2019-02-11T21:45:11.349Z,23.10
2019-02-11T21:47:39.905Z,20.43
2019-02-11T21:50:11.212Z,23.35
2019-02-11T21:52:39.506Z,17.37
2019-02-11T21:55:10.980Z,21.20
2019-02-11T21:57:39.230Z,23.87
2019-02-11T22:00:10.935Z,20.08
2019-02-11T22:02:39.250Z,27.05
2019-02-11T22:05:07.978Z,21.25
2019-02-11T22:07:36.245Z,18.43
2019-02-11T22:10:09.900Z,19.95
2019-02-11T22:12:38.146Z,28.85
2019-02-11T22:15:07.776Z,17.62
2019-02-11T22:17:36.188Z,10.80
2019-02-11T22:20:10.012Z,22.50
2019-02-11T22:22:38.256Z,19.67
2019-02-11T22:25:08.615Z,19.00
2019-02-11T22:27:36.888Z,14.30
2019-02-11T22:30:08.440Z,20.52
2019-02-11T22:32:36.680Z,14.05
2019-02-11T22:35:07.685Z,19.92
2019-02-11T22:37:36.064Z,16.55
2019-02-11T22:40:05.980Z,19.52
2019-02-11T22:42:34.224Z,18.35
2019-02-11T22:45:02.503Z,15.70
2019-02-11T22:47:30.944Z,23.25
2019-02-11T22:49:59.216Z,16.03
2019-02-11T22:52:27.493Z,19.85
2019-02-11T22:54:55.738Z,14.85
2019-02-11T22:57:24.112Z,17.27
2019-02-11T22:59:52.492Z,15.58
2019-02-11T23:02:20.844Z,24.52
2019-02-11T23:04:49.121Z,16.02
2019-02-11T23:07:17.377Z,15.13
2019-02-11T23:09:45.723Z,19.62
2019-02-11T23:12:13.977Z,21.02
2019-02-11T23:14:42.228Z,16.37
2019-02-11T23:17:11.138Z,12.23
2019-02-11T23:19:39.421Z,17.07
2019-02-11T23:22:07.730Z,15.20
2019-02-11T23:24:35.976Z,15.60
2019-02-11T23:27:04.250Z,18.40
2019-02-11T23:29:32.503Z,16.70
2019-02-11T23:32:00.800Z,20.92
2019-02-11T23:34:29.075Z,17.02
2019-02-11T23:36:57.321Z,13.33
2019-02-11T23:39:25.601Z,19.02
2019-02-11T23:41:54.000Z,17.48
2019-02-11T23:44:22.255Z,18.37
2019-02-11T23:46:50.496Z,10.82
2019-02-11T23:49:18.771Z,17.02
2019-02-11T23:51:47.049Z,18.55
2019-02-11T23:54:15.322Z,19.37
2019-02-11T23:56:43.589Z,20.00
2019-02-11T23:59:12.147Z,14.15
